Time;durP1;ratioP1;P1;durP2;ratioP2;P2;SDS_P1;SDS_P2;PMS_P1;PMS_P2;Temp;Humidity;BMP_temperature;BMP_pressure;BME280_temperature;BME280_humidity;BME280_pressure;Samples;Min_cycle;Max_cycle;Signal;HPM_P1;HPM_P2
2022/09/19 00:01:55;;;;;;;15.45;3.17;;;;;;;8.95;100.00;101564.47;5071398;28;20101;-49
2022/09/19 00:04:25;;;;;;;15.27;3.30;;;;;;;8.92;100.00;101559.38;5071755;28;20048;-50
2022/09/19 00:06:55;;;;;;;13.88;2.63;;;;;;;8.91;100.00;101560.31;5070579;28;20504;-50
2022/09/19 00:09:29;;;;;;;12.65;2.67;;;;;;;8.91;100.00;101559.47;5071559;28;20086;-52
2022/09/19 00:11:57;;;;;;;20.33;2.60;;;;;;;8.89;100.00;101549.06;5070916;28;20102;-50
2022/09/19 00:14:27;;;;;;;16.67;2.78;;;;;;;8.92;100.00;101555.94;5071908;28;20044;-52
2022/09/19 00:16:57;;;;;;;19.55;3.20;;;;;;;8.91;100.00;101548.97;5071067;28;20059;-51
2022/09/19 00:19:26;;;;;;;15.70;3.08;;;;;;;8.95;100.00;101558.41;5071331;28;20102;-51
2022/09/19 00:21:56;;;;;;;16.35;2.50;;;;;;;8.93;100.00;101555.84;5069984;28;20407;-47
2022/09/19 00:27:13;;;;;;;15.82;3.20;;;;;;;8.99;100.00;101565.19;5071693;28;20036;-50
2022/09/19 00:29:42;;;;;;;14.32;2.30;;;;;;;9.02;100.00;101556.34;5070393;28;20045;-50
2022/09/19 00:32:12;;;;;;;16.48;2.25;;;;;;;9.00;100.00;101558.16;5071106;28;20047;-48
2022/09/19 00:34:42;;;;;;;16.40;2.90;;;;;;;9.02;100.00;101561.59;5071149;28;20554;-48
2022/09/19 00:37:10;;;;;;;11.93;2.13;;;;;;;9.00;100.00;101558.16;5070624;28;20423;-50
2022/09/19 00:39:40;;;;;;;11.90;2.45;;;;;;;9.03;100.00;101560.66;5071472;28;20533;-51
2022/09/19 00:42:15;;;;;;;14.02;2.45;;;;;;;9.05;100.00;101558.81;5071337;28;20123;-49
2022/09/19 00:44:59;;;;;;;16.65;2.42;;;;;;;9.07;100.00;101570.09;5069255;28;20134;-51
2022/09/19 00:47:35;;;;;;;15.18;2.13;;;;;;;9.07;100.00;101567.47;5070883;28;20118;-49
2022/09/19 00:50:09;;;;;;;16.02;2.50;;;;;;;9.05;100.00;101566.69;5069420;28;20053;-50
2022/09/19 00:52:43;;;;;;;13.32;2.50;;;;;;;9.07;100.00;101577.97;5071432;28;20102;-48
2022/09/19 00:55:13;;;;;;;13.85;2.30;;;;;;;9.11;100.00;101584.78;5071104;28;20045;-47
2022/09/19 00:57:48;;;;;;;12.40;1.92;;;;;;;9.14;100.00;101584.63;5070692;28;20044;-52
2022/09/19 01:00:16;;;;;;;10.10;1.65;;;;;;;9.20;100.00;101580.84;5069812;28;20041;-51
2022/09/19 01:02:46;;;;;;;11.40;2.50;;;;;;;9.21;100.00;101580.78;5071087;28;20040;-49
2022/09/19 01:05:16;;;;;;;18.20;2.33;;;;;;;9.24;100.00;101587.66;5068865;28;20094;-52
2022/09/19 01:07:54;;;;;;;13.75;2.20;;;;;;;9.24;100.00;101587.66;5070890;28;20502;-49
2022/09/19 01:10:42;;;;;;;14.13;2.20;;;;;;;9.32;100.00;101589.94;5070775;28;20449;-49
2022/09/19 01:13:16;;;;;;;13.10;1.70;;;;;;;9.28;100.00;101590.06;5070669;28;20049;-53
2022/09/19 01:15:53;;;;;;;16.40;1.95;;;;;;;9.28;100.00;101587.44;5070362;28;20048;-50
2022/09/19 01:18:27;;;;;;;12.50;2.00;;;;;;;9.30;100.00;101593.47;5070078;28;20041;-51
2022/09/19 01:24:30;;;;;;;13.18;2.22;;;;;;;9.32;100.00;101603.06;5070521;28;20146;-51
2022/09/19 01:27:17;;;;;;;15.52;2.17;;;;;;;9.26;100.00;101605.03;5070903;28;20087;-50
2022/09/19 01:29:50;;;;;;;15.43;2.25;;;;;;;9.30;100.00;101601.34;5069915;28;20049;-53
2022/09/19 01:32:23;;;;;;;15.40;2.65;;;;;;;9.29;100.00;101602.25;5070296;28;20044;-49
2022/09/19 01:34:56;;;;;;;14.55;2.95;;;;;;;9.32;100.00;101603.06;5068843;28;20045;-53
2022/09/19 01:37:30;;;;;;;21.00;2.72;;;;;;;9.30;100.00;101605.75;5070127;28;20616;-51
2022/09/19 01:40:02;;;;;;;15.68;3.05;;;;;;;9.29;100.00;101602.25;5070397;28;20044;-48
2022/09/19 01:42:30;;;;;;;15.83;2.37;;;;;;;9.29;100.00;101604.03;5070037;28;20048;-48
2022/09/19 01:45:00;;;;;;;15.85;2.50;;;;;;;9.30;100.00;101603.97;5069517;28;20470;-47
2022/09/19 01:47:40;;;;;;;18.50;2.58;;;;;;;9.31;100.00;101610.06;5070023;28;20086;-47
2022/09/19 01:50:15;;;;;;;19.27;2.03;;;;;;;9.32;100.00;101614.38;5069069;28;20814;-50
2022/09/19 01:52:59;;;;;;;11.25;2.00;;;;;;;9.29;100.00;101607.50;5070461;28;20052;-52
2022/09/19 01:55:35;;;;;;;14.80;2.22;;;;;;;9.28;100.00;101613.69;5070026;28;20143;-52
2022/09/19 01:58:08;;;;;;;15.02;2.58;;;;;;;9.25;100.00;101613.00;5069841;28;20076;-53
2022/09/19 02:00:44;;;;;;;17.50;3.25;;;;;;;9.25;100.00;101616.44;5069790;28;20052;-51
2022/09/19 02:03:22;;;;;;;15.40;2.97;;;;;;;9.21;100.00;101611.44;5069569;28;20041;-51
2022/09/19 02:05:55;;;;;;;18.92;4.15;;;;;;;9.17;100.00;101610.72;5068636;28;20402;-51
2022/09/19 02:08:29;;;;;;;18.40;3.53;;;;;;;9.13;100.00;101614.41;5069952;28;20040;-52
2022/09/19 02:11:01;;;;;;;21.48;3.90;;;;;;;9.12;100.00;101616.19;5070015;28;20055;-52
2022/09/19 02:13:32;;;;;;;16.42;3.92;;;;;;;9.09;100.00;101612.84;5069739;28;20102;-54
2022/09/19 02:16:09;;;;;;;16.80;3.13;;;;;;;9.11;100.00;101617.09;5069409;28;20140;-52
2022/09/19 02:18:44;;;;;;;14.82;2.67;;;;;;;9.10;100.00;101615.41;5070187;28;20127;-52
2022/09/19 02:21:18;;;;;;;17.52;3.05;;;;;;;9.16;100.00;101616.03;5068023;28;20036;-52
2022/09/19 02:23:50;;;;;;;18.00;3.20;;;;;;;9.14;100.00;101618.75;5069552;28;20041;-53
2022/09/19 02:26:22;;;;;;;20.43;2.83;;;;;;;9.18;100.00;101622.09;5069598;28;20041;-50
2022/09/19 02:28:55;;;;;;;13.95;2.33;;;;;;;9.20;100.00;101630.72;5069888;28;20072;-47
2022/09/19 02:31:26;;;;;;;;;;;;;;;9.20;100.00;101630.72;5069699;28;20075;-50
2022/09/19 02:33:59;;;;;;;12.68;2.10;;;;;;;9.17;100.00;101636.97;5070033;28;20301;-51
2022/09/19 02:36:31;;;;;;;12.43;2.30;;;;;;;9.18;100.00;101632.56;5068189;28;20439;-47
2022/09/19 02:39:04;;;;;;;16.48;2.80;;;;;;;9.13;100.00;101638.03;5068202;28;20040;-46
2022/09/19 02:41:40;;;;;;;12.40;1.80;;;;;;;9.14;100.00;101631.84;5069833;28;20051;-49
2022/09/19 02:44:19;;;;;;;14.77;2.08;;;;;;;9.16;100.00;101630.00;5069349;28;20123;-50
2022/09/19 02:47:01;;;;;;;12.95;1.80;;;;;;;9.17;100.00;101633.50;5069048;28;20365;-52
2022/09/19 02:49:38;;;;;;;12.77;2.13;;;;;;;9.14;100.00;101629.22;5069422;28;20052;-51
2022/09/19 02:52:15;;;;;;;15.65;2.20;;;;;;;9.17;100.00;101630.88;5068664;28;20048;-50
2022/09/19 02:54:49;;;;;;;15.05;2.38;;;;;;;9.13;100.00;101627.53;5069359;28;20070;-47
2022/09/19 02:57:20;;;;;;;13.85;1.92;;;;;;;9.11;100.00;101632.84;5069400;28;20044;-48
2022/09/19 02:59:50;;;;;;;14.35;2.35;;;;;;;9.12;100.00;101629.31;5069320;28;20082;-48
2022/09/19 03:02:24;;;;;;;18.80;2.38;;;;;;;9.14;100.00;101626.63;5069461;28;20048;-46
2022/09/19 03:04:59;;;;;;;13.13;1.85;;;;;;;9.13;100.00;101636.28;5067881;28;20080;-48
2022/09/19 03:07:30;;;;;;;12.18;1.80;;;;;;;9.16;100.00;101629.16;5069234;28;20470;-47
2022/09/19 03:10:04;;;;;;;15.40;1.85;;;;;;;9.14;100.00;101632.69;5070357;28;20053;-50
2022/09/19 03:12:37;;;;;;;13.77;1.80;;;;;;;9.18;100.00;101629.97;5073515;28;20044;-51
2022/09/19 03:15:07;;;;;;;;;;;;;;;9.21;100.00;101630.66;5072960;28;20040;-51
2022/09/19 03:17:43;;;;;;;12.23;2.03;;;;;;;9.21;100.00;101628.03;5073194;28;20015;-47
2022/09/19 03:20:11;;;;;;;12.48;2.40;;;;;;;9.22;100.00;101629.72;5071355;28;20052;-47
2022/09/19 03:22:40;;;;;;;15.63;2.15;;;;;;;9.21;100.00;101628.03;5072972;28;20071;-48
2022/09/19 03:25:10;;;;;;;16.92;2.03;;;;;;;9.23;100.00;101630.56;5072008;28;20108;-51
2022/09/19 03:27:38;;;;;;;13.30;2.10;;;;;;;9.23;100.00;101626.19;5073139;28;20079;-51
2022/09/19 03:30:08;;;;;;;11.98;2.22;;;;;;;9.24;100.00;101627.91;5072102;28;20645;-52
2022/09/19 03:32:42;;;;;;;12.68;2.05;;;;;;;9.28;100.00;101632.06;5073210;28;20048;-49
2022/09/19 03:35:11;;;;;;;12.52;1.85;;;;;;;9.25;100.00;101629.56;5070916;28;20044;-50
2022/09/19 03:37:39;;;;;;;11.82;2.75;;;;;;;9.26;100.00;101631.28;5073047;28;20094;-53
2022/09/19 03:40:09;;;;;;;17.52;3.10;;;;;;;9.21;100.00;101635.88;5072186;28;20045;-50
2022/09/19 03:42:37;;;;;;;15.38;2.88;;;;;;;9.20;100.00;101631.56;5072366;28;20414;-48
2022/09/19 03:45:06;;;;;;;14.77;3.33;;;;;;;9.25;100.00;101637.44;5071485;28;20087;-51
2022/09/19 03:47:34;;;;;;;15.73;2.50;;;;;;;9.21;100.00;101638.50;5072553;28;20080;-48
2022/09/19 03:50:06;;;;;;;11.60;1.85;;;;;;;9.29;100.00;101641.63;5070938;28;20130;-52
2022/09/19 03:52:34;;;;;;;13.52;2.00;;;;;;;9.27;100.00;101640.00;5072539;28;20041;-48
2022/09/19 03:55:02;;;;;;;11.18;1.90;;;;;;;9.27;100.00;101643.50;5070760;28;20058;-52
2022/09/19 03:57:30;;;;;;;14.60;2.40;;;;;;;9.29;100.00;101651.28;5072006;28;20072;-51
2022/09/19 03:59:58;;;;;;;16.42;2.38;;;;;;;9.28;100.00;101650.44;5071722;28;20052;-48
2022/09/19 04:02:26;;;;;;;14.98;2.50;;;;;;;9.29;100.00;101644.25;5071981;28;20084;-50
2022/09/19 04:04:54;;;;;;;8.80;2.15;;;;;;;9.25;100.00;101653.19;5070462;28;20052;-47
2022/09/19 04:07:27;;;;;;;14.65;2.55;;;;;;;9.32;100.00;101647.69;5071547;28;20044;-52
2022/09/19 04:09:55;;;;;;;16.95;2.22;;;;;;;9.29;100.00;101653.91;5072382;28;20045;-47
2022/09/19 04:12:24;;;;;;;17.52;2.30;;;;;;;9.29;100.00;101660.00;5072008;28;20446;-50
2022/09/19 04:14:53;;;;;;;15.20;2.20;;;;;;;9.23;100.00;101656.81;5071440;28;20402;-51
2022/09/19 04:17:21;;;;;;;12.25;3.10;;;;;;;9.26;100.00;101657.53;5072035;28;20036;-51
2022/09/19 04:19:52;;;;;;;13.52;3.17;;;;;;;9.30;100.00;101664.34;5070562;28;20137;-50
2022/09/19 04:22:21;;;;;;;16.88;3.47;;;;;;;9.30;100.00;101660.88;5070822;28;20115;-49
2022/09/19 04:24:52;;;;;;;11.70;2.85;;;;;;;9.29;100.00;101665.25;5071146;28;20048;-48
2022/09/19 04:27:20;;;;;;;20.00;3.55;;;;;;;9.30;100.00;101664.34;5071668;28;20110;-49
2022/09/19 04:29:49;;;;;;;16.48;3.25;;;;;;;9.28;100.00;101660.09;5070626;28;20459;-50
2022/09/19 04:32:17;;;;;;;13.73;2.95;;;;;;;9.27;100.00;101659.25;5071666;28;20040;-51
2022/09/19 04:34:47;;;;;;;18.35;3.38;;;;;;;9.28;100.00;101663.56;5069486;28;20060;-49
2022/09/19 04:37:15;;;;;;;15.50;3.35;;;;;;;9.30;100.00;101666.97;5071271;28;20517;-49
2022/09/19 04:39:47;;;;;;;15.60;2.67;;;;;;;9.36;100.00;101670.22;5071096;28;20060;-46
2022/09/19 04:42:19;;;;;;;14.85;2.58;;;;;;;9.41;100.00;101669.09;5071361;28;20120;-50
2022/09/19 04:44:47;;;;;;;14.45;2.08;;;;;;;9.39;100.00;101667.47;5070463;28;20044;-48
2022/09/19 04:47:15;;;;;;;14.05;2.33;;;;;;;9.41;100.00;101676.97;5071619;28;20483;-48
2022/09/19 04:49:43;;;;;;;14.30;1.98;;;;;;;9.46;100.00;101679.38;5070738;28;20045;-48
2022/09/19 04:52:12;;;;;;;13.05;2.75;;;;;;;9.50;100.00;101685.34;5070447;28;20590;-50
2022/09/19 04:54:41;;;;;;;7.75;1.63;;;;;;;9.52;100.00;101681.72;5069954;28;20075;-51
2022/09/19 04:57:10;;;;;;;11.80;2.10;;;;;;;9.57;100.00;101682.34;5071294;28;20395;-48
2022/09/19 04:59:39;;;;;;;11.55;2.05;;;;;;;9.61;100.00;101691.78;5070963;28;20467;-48
2022/09/19 05:02:08;;;;;;;12.88;2.10;;;;;;;9.62;100.00;101690.00;5071101;28;20049;-48
2022/09/19 05:04:38;;;;;;;11.00;2.38;;;;;;;9.63;100.00;101686.47;5071133;28;20106;-53
2022/09/19 05:07:08;;;;;;;10.02;1.80;;;;;;;9.66;100.00;101691.56;5069926;28;20094;-49
2022/09/19 05:09:36;;;;;;;11.80;1.65;;;;;;;9.67;100.00;101700.28;5070665;28;20059;-51
2022/09/19 05:12:08;;;;;;;14.57;2.05;;;;;;;9.66;100.00;101707.31;5071007;28;20372;-51
2022/09/19 05:14:36;;;;;;;14.77;2.50;;;;;;;9.64;100.00;101696.88;5070641;28;20052;-49
2022/09/19 05:17:05;;;;;;;10.38;1.73;;;;;;;9.70;100.00;101708.03;5070696;28;20040;-51
2022/09/19 05:19:33;;;;;;;13.35;1.83;;;;;;;9.67;100.00;101700.28;5070610;28;20075;-48
2022/09/19 05:22:02;;;;;;;10.90;1.35;;;;;;;9.69;100.00;101707.16;5068970;28;20126;-50
2022/09/19 05:24:30;;;;;;;14.55;1.73;;;;;;;9.69;100.00;101701.06;5069969;28;20131;-51
2022/09/19 05:26:58;;;;;;;11.82;2.00;;;;;;;9.70;100.00;101706.25;5070631;28;20052;-50
2022/09/19 05:29:26;;;;;;;13.27;2.42;;;;;;;9.73;100.00;101713.13;5070326;28;20040;-49
2022/09/19 05:32:02;;;;;;;10.80;1.77;;;;;;;9.76;100.00;101716.47;5070381;28;20048;-50
2022/09/19 05:34:31;;;;;;;12.50;2.13;;;;;;;9.79;100.00;101707.59;5069447;28;20044;-51
2022/09/19 05:36:59;;;;;;;12.63;2.28;;;;;;;9.82;100.00;101717.94;5069097;28;20052;-50
2022/09/19 05:39:27;;;;;;;9.48;2.00;;;;;;;9.82;100.00;101724.03;5070093;28;20075;-51
2022/09/19 05:41:55;;;;;;;12.20;2.15;;;;;;;9.86;100.00;101723.88;5070561;28;20102;-49
2022/09/19 05:44:23;;;;;;;11.15;1.85;;;;;;;9.90;100.00;101734.19;5069453;28;20059;-52
2022/09/19 05:46:52;;;;;;;12.80;1.63;;;;;;;9.91;100.00;101733.28;5069435;28;20181;-50
2022/09/19 05:49:20;;;;;;;10.00;1.83;;;;;;;9.91;100.00;101728.03;5069633;28;20469;-50
2022/09/19 05:51:54;;;;;;;9.27;1.85;;;;;;;9.92;100.00;101724.44;5068115;28;20538;-48
2022/09/19 05:54:22;;;;;;;10.23;2.30;;;;;;;9.97;100.00;101725.09;5069947;28;20410;-50
2022/09/19 05:56:53;;;;;;;13.48;2.45;;;;;;;9.97;100.00;101721.63;5070137;28;20041;-51
2022/09/19 05:59:21;;;;;;;13.75;3.00;;;;;;;9.98;100.00;101720.69;5069789;28;20090;-51
2022/09/19 06:01:49;;;;;;;13.63;2.17;;;;;;;10.02;100.00;101734.53;5069644;28;20071;-48
2022/09/19 06:04:18;;;;;;;14.27;3.20;;;;;;;9.98;100.00;101737.31;5069561;28;20060;-51
2022/09/19 06:06:46;;;;;;;14.57;3.53;;;;;;;10.03;100.00;101749.38;5068746;28;20383;-50
2022/09/19 06:09:15;;;;;;;18.60;3.88;;;;;;;10.06;100.00;101743.97;5069765;28;20135;-49
2022/09/19 06:11:43;;;;;;;14.85;3.03;;;;;;;10.09;100.00;101743.78;5070477;28;20044;-51
2022/09/19 06:14:17;;;;;;;18.30;3.25;;;;;;;10.12;100.00;101747.13;5069825;28;20041;-50
2022/09/19 06:16:45;;;;;;;11.45;2.13;;;;;;;10.17;100.00;101751.31;5069646;28;20044;-52
2022/09/19 06:19:13;;;;;;;12.65;1.83;;;;;;;10.21;100.00;101761.63;5069460;28;20402;-51
2022/09/19 06:21:41;;;;;;;14.40;2.08;;;;;;;10.30;100.00;101753.25;5068216;28;20053;-49
2022/09/19 06:24:10;;;;;;;15.27;2.53;;;;;;;10.37;100.00;101753.00;5070212;28;20056;-51
2022/09/19 06:26:39;;;;;;;12.07;2.05;;;;;;;10.47;100.00;101759.50;5070341;28;20360;-53
2022/09/19 06:29:07;;;;;;;13.65;2.00;;;;;;;10.52;100.00;101756.66;5069623;28;20056;-52
2022/09/19 06:31:36;;;;;;;16.02;2.38;;;;;;;10.56;100.00;101763.44;5068978;28;20052;-50
2022/09/19 06:34:05;;;;;;;14.25;2.95;;;;;;;10.61;100.00;101772.81;5069695;28;20391;-52
2022/09/19 06:36:34;;;;;;;20.80;4.03;;;;;;;10.64;100.00;101770.00;5068172;28;20443;-50
2022/09/19 06:39:02;;;;;;;13.20;2.95;;;;;;;10.68;100.00;101767.25;5069183;28;20048;-49
2022/09/19 06:41:30;;;;;;;14.18;3.08;;;;;;;10.72;100.00;101771.44;5069296;28;20087;-51
2022/09/19 06:44:01;;;;;;;11.77;1.95;;;;;;;10.74;100.00;101777.44;5069461;28;20131;-53
2022/09/19 06:46:30;;;;;;;10.80;2.42;;;;;;;10.77;100.00;101775.53;5070664;28;20099;-49
2022/09/19 06:48:58;;;;;;;15.93;2.28;;;;;;;10.79;100.00;101781.53;5073411;28;20040;-52
2022/09/19 06:51:29;;;;;;;9.43;2.10;;;;;;;10.81;100.00;101779.69;5071793;28;20048;-50
2022/09/19 06:53:57;;;;;;;14.23;1.90;;;;;;;10.82;100.00;101778.78;5073378;28;20437;-49
2022/09/19 06:56:25;;;;;;;11.05;2.15;;;;;;;10.86;100.00;101786.50;5073282;28;20040;-49
2022/09/19 06:58:53;;;;;;;16.50;2.55;;;;;;;10.91;100.00;101795.03;5073052;28;20127;-50
2022/09/19 07:01:22;;;;;;;7.72;1.65;;;;;;;11.02;100.00;101791.84;5072044;28;20045;-49
2022/09/19 07:03:51;;;;;;;11.68;2.30;;;;;;;11.09;100.00;101790.56;5073178;28;20052;-51
2022/09/19 07:06:19;;;;;;;14.32;2.33;;;;;;;11.14;100.00;101802.56;5071349;28;20124;-52
2022/09/19 07:08:47;;;;;;;10.57;2.55;;;;;;;11.22;100.00;101810.06;5072687;28;20052;-52
2022/09/19 07:11:15;;;;;;;14.45;2.67;;;;;;;11.37;100.00;101811.03;5072664;28;20556;-49
2022/09/19 07:13:44;;;;;;;15.13;3.05;;;;;;;11.55;100.00;101818.88;5073014;28;20048;-48
2022/09/19 07:16:12;;;;;;;16.95;2.83;;;;;;;11.69;100.00;101828.69;5070502;28;20056;-51
2022/09/19 07:18:41;;;;;;;12.00;2.58;;;;;;;11.76;100.00;101833.53;5073094;28;20044;-51
2022/09/19 07:21:09;;;;;;;12.02;2.55;;;;;;;11.86;100.00;101830.38;5071135;28;20072;-53
2022/09/19 07:23:37;;;;;;;12.20;2.22;;;;;;;11.92;100.00;101832.69;5072224;28;20052;-52
2022/09/19 07:26:05;;;;;;;14.82;3.20;;;;;;;11.98;100.00;101827.97;5071680;28;20111;-50
2022/09/19 07:28:34;;;;;;;14.18;2.30;;;;;;;12.00;100.00;101835.78;5072913;28;20119;-54
2022/09/19 07:31:02;;;;;;;12.85;2.10;;;;;;;12.07;100.00;101833.66;5071024;28;20049;-49
2022/09/19 07:33:30;;;;;;;10.60;1.92;;;;;;;12.27;100.00;101830.75;5072358;28;20056;-49
2022/09/19 07:36:01;;;;;;;11.70;2.08;;;;;;;12.52;100.00;101834.63;5071208;28;20396;-50
2022/09/19 07:38:35;;;;;;;14.52;2.35;;;;;;;12.62;100.00;101840.22;5072312;28;20514;-51
2022/09/19 07:41:03;;;;;;;13.75;1.90;;;;;;;12.70;100.00;101839.78;5072155;28;20057;-51
2022/09/19 07:43:31;;;;;;;9.15;1.80;;;;;;;12.82;100.00;101839.06;5072162;28;20059;-51
2022/09/19 07:45:59;;;;;;;12.52;1.90;;;;;;;13.01;100.00;101844.09;5072127;28;20040;-52
2022/09/19 07:48:27;;;;;;;9.68;1.67;;;;;;;13.27;100.00;101845.16;5072055;28;20072;-52
2022/09/19 07:50:58;;;;;;;10.90;2.10;;;;;;;13.25;100.00;101841.78;5070633;28;20485;-52
2022/09/19 07:53:28;;;;;;;11.50;2.42;;;;;;;13.27;100.00;101845.16;5072408;28;20041;-53
2022/09/19 07:55:57;;;;;;;11.55;1.63;;;;;;;13.26;100.00;101847.91;5072255;28;20062;-52
2022/09/19 07:58:27;;;;;;;11.50;1.35;;;;;;;13.28;100.00;101849.50;5069728;28;20048;-53
2022/09/19 08:00:59;;;;;;;11.18;2.10;;;;;;;13.34;100.00;101850.94;5071434;28;20041;-53
2022/09/19 08:03:27;;;;;;;9.43;1.45;;;;;;;13.40;100.00;101860.31;5071536;28;20048;-52
2022/09/19 08:05:55;;;;;;;11.05;1.70;;;;;;;13.22;100.00;101857.78;5070595;28;20050;-52
2022/09/19 08:08:24;;;;;;;11.18;1.63;;;;;;;13.31;100.00;101859.06;5071949;28;20040;-53
2022/09/19 08:10:58;;;;;;;11.75;2.15;;;;;;;13.44;100.00;101861.81;5071912;28;20039;-50
2022/09/19 08:13:27;;;;;;;12.23;1.95;;;;;;;13.63;100.00;101859.75;5071535;28;20052;-53
2022/09/19 08:15:55;;;;;;;10.32;1.70;;;;;;;13.91;100.00;101862.47;5071482;28;20049;-52
2022/09/19 08:18:30;;;;;;;9.27;1.65;;;;;;;14.23;100.00;101865.69;5072020;28;20080;-51
2022/09/19 08:20:58;;;;;;;10.18;1.75;;;;;;;14.42;100.00;101865.34;5070695;28;20514;-54
2022/09/19 08:23:28;;;;;;;11.13;1.73;;;;;;;14.65;100.00;101857.72;5071645;28;20068;-53
2022/09/19 08:25:57;;;;;;;9.63;1.98;;;;;;;14.75;100.00;101860.59;5072500;28;20399;-54
2022/09/19 08:28:25;;;;;;;10.75;1.85;;;;;;;15.07;100.00;101865.53;5071461;28;20044;-53
2022/09/19 08:30:58;;;;;;;12.63;1.65;;;;;;;15.17;100.00;101867.47;5071684;28;20507;-54
2022/09/19 08:33:26;;;;;;;;;;;;;;;15.31;100.00;101873.59;5071639;28;20418;-52
2022/09/19 08:35:54;;;;;;;10.75;1.70;;;;;;;15.43;100.00;101878.03;5070097;28;19927;-54
2022/09/19 08:38:22;;;;;;;12.68;1.95;;;;;;;15.68;100.00;101869.22;5070842;28;20132;-53
2022/09/19 08:41:04;;;;;;;9.73;1.67;;;;;;;15.69;100.00;101884.19;5071617;28;20106;-55
2022/09/19 08:43:39;;;;;;;10.23;1.58;;;;;;;15.76;100.00;101876.66;5070830;28;20398;-55
2022/09/19 08:46:15;;;;;;;11.27;1.83;;;;;;;15.82;100.00;101870.94;5071237;28;20091;-55
2022/09/19 08:48:53;;;;;;;8.88;1.55;;;;;;;15.95;98.41;101873.56;5071522;28;20055;-57
2022/09/19 08:51:26;;;;;;;11.65;2.03;;;;;;;16.10;95.90;101879.56;5068685;28;20041;-57
2022/09/19 08:53:57;;;;;;;;;;;;;;;16.25;96.97;101880.25;5071966;28;20044;-54
2022/09/19 08:56:26;;;;;;;7.20;1.50;;;;;;;16.13;93.91;101883.78;5071262;28;19924;-54
2022/09/19 08:59:01;;;;;;;9.80;1.42;;;;;;;16.29;95.79;101873.78;5071216;28;20522;-53
2022/09/19 09:01:33;;;;;;;9.02;1.42;;;;;;;16.59;95.37;101872.44;5070435;28;20056;-53
2022/09/19 09:04:16;;;;;;;8.90;1.83;;;;;;;16.79;93.02;101873.63;5071118;28;20043;-53
2022/09/19 09:06:56;;;;;;;12.18;2.00;;;;;;;16.83;90.86;101879.56;5069953;28;20072;-53
2022/09/19 09:09:34;;;;;;;10.27;1.63;;;;;;;16.84;89.21;101875.94;5070767;28;20040;-56
2022/09/19 09:12:14;;;;;;;6.65;1.58;;;;;;;16.94;88.47;101862.84;5070078;28;20052;-55
2022/09/19 09:14:57;;;;;;;7.35;1.58;;;;;;;17.21;88.73;101867.84;5070957;28;20399;-56
2022/09/19 09:17:54;;;;;;;7.60;1.50;;;;;;;17.38;85.79;101869.19;5071410;28;20048;-57
2022/09/19 09:20:39;;;;;;;8.70;1.48;;;;;;;17.29;85.93;101864.56;5069736;28;20403;-56
2022/09/19 09:23:15;;;;;;;11.98;2.20;;;;;;;17.63;84.43;101868.09;5071205;28;20048;-56
2022/09/19 09:25:47;;;;;;;9.95;1.73;;;;;;;17.86;81.01;101865.41;5070809;28;20498;-52
2022/09/19 09:28:26;;;;;;;7.82;1.50;;;;;;;17.69;84.86;101891.56;5069042;28;20063;-53
2022/09/19 09:31:10;;;;;;;14.02;2.10;;;;;;;17.03;98.77;101902.84;5070031;28;20040;-47
2022/09/19 09:33:51;;;;;;;9.48;1.83;;;;;;;16.50;100.00;101911.16;5069305;28;20078;-48
2022/09/19 09:36:24;;;;;;;7.25;1.40;;;;;;;16.23;100.00;101914.03;5069129;28;20048;-49
2022/09/19 09:38:57;;;;;;;5.28;0.90;;;;;;;15.52;100.00;101908.38;5070204;28;20056;-53
2022/09/19 09:41:52;;;;;;;6.40;0.80;;;;;;;15.52;100.00;101911.03;5070291;28;20098;-50
2022/09/19 09:44:52;;;;;;;4.13;1.10;;;;;;;15.32;100.00;101912.41;5069107;28;20048;-49
2022/09/19 09:47:32;;;;;;;4.93;0.70;;;;;;;15.07;100.00;101903.47;5070182;28;20067;-52
2022/09/19 09:50:14;;;;;;;7.35;0.90;;;;;;;15.36;100.00;101920.03;5068594;28;20048;-52
2022/09/19 09:52:51;;;;;;;4.72;1.00;;;;;;;15.47;100.00;101919.28;5070444;28;20132;-52
2022/09/19 09:58:31;;;;;;;4.82;0.82;;;;;;;15.59;100.00;101909.63;5070342;28;20049;-54
2022/09/19 10:04:15;;;;;;;6.28;0.95;;;;;;;15.57;100.00;101906.25;5070122;28;20560;-55
2022/09/19 10:06:52;;;;;;;4.03;0.80;;;;;;;15.62;100.00;101904.13;5069432;28;20131;-53
2022/09/19 10:09:24;;;;;;;5.28;0.88;;;;;;;15.61;100.00;101901.56;5070155;28;20383;-55
2022/09/19 10:11:57;;;;;;;3.63;0.90;;;;;;;15.57;100.00;101898.31;5070252;28;20052;-55
2022/09/19 10:14:47;;;;;;;6.13;1.07;;;;;;;15.48;100.00;101899.78;5069775;28;20535;-56
2022/09/19 10:17:19;;;;;;;4.47;0.98;;;;;;;15.52;100.00;101903.06;5070668;28;20102;-56
2022/09/19 10:19:49;;;;;;;4.22;0.90;;;;;;;15.45;100.00;101902.66;5070089;28;20044;-56
2022/09/19 10:22:18;;;;;;;8.38;1.08;;;;;;;15.63;100.00;101894.38;5074180;28;20048;-56
2022/09/19 10:24:52;;;;;;;4.43;1.30;;;;;;;15.77;100.00;101893.41;5074010;28;20067;-56
2022/09/19 10:27:24;;;;;;;6.70;1.20;;;;;;;16.01;100.00;101891.69;5074470;28;20106;-56
2022/09/19 10:29:57;;;;;;;5.20;1.00;;;;;;;16.46;100.00;101887.63;5074001;28;20424;-57
2022/09/19 10:32:34;;;;;;;6.57;1.42;;;;;;;16.58;99.81;101888.50;5074190;28;20052;-58
2022/09/19 10:35:14;;;;;;;8.10;1.15;;;;;;;16.92;96.87;101891.31;5073090;28;20067;-57
2022/09/19 10:37:43;;;;;;;7.13;1.02;;;;;;;17.34;98.20;101884.53;5074190;28;20041;-57
2022/09/19 10:40:16;;;;;;;4.68;1.20;;;;;;;17.42;93.19;101893.72;5074011;28;20128;-57
2022/09/19 10:42:44;;;;;;;5.50;1.00;;;;;;;17.38;93.52;101895.75;5074375;28;20044;-58
2022/09/19 10:45:25;;;;;;;3.63;0.80;;;;;;;16.72;88.79;101899.78;5073399;28;20074;-57
2022/09/19 10:48:02;;;;;;;2.30;0.73;;;;;;;16.30;89.47;101899.34;5073042;28;20049;-57
2022/09/19 10:50:31;;;;;;;2.47;0.52;;;;;;;16.32;88.88;101892.13;5072402;28;20427;-54
2022/09/19 10:53:02;;;;;;;2.78;0.57;;;;;;;16.42;88.65;101900.25;5073119;28;20047;-54
2022/09/19 10:55:34;;;;;;;2.33;0.82;;;;;;;16.51;89.77;101894.28;5073216;28;20049;-57
2022/09/19 10:58:05;;;;;;;5.15;1.10;;;;;;;16.44;93.72;101889.53;5073361;28;20515;-58
2022/09/19 11:00:48;;;;;;;4.32;0.93;;;;;;;16.08;93.49;101893.91;5073632;28;20044;-58
2022/09/19 11:03:25;;;;;;;6.50;1.30;;;;;;;15.93;94.97;101902.00;5073521;28;20074;-58
2022/09/19 11:06:07;;;;;;;4.40;0.80;;;;;;;15.94;95.48;101901.03;5072130;28;20135;-58
2022/09/19 11:08:42;;;;;;;3.03;0.77;;;;;;;15.69;95.86;101899.22;5073218;28;20060;-58
2022/09/19 11:11:37;;;;;;;4.50;0.85;;;;;;;15.58;95.94;101896.50;5073850;28;20053;-58
2022/09/19 11:14:22;;;;;;;5.88;0.95;;;;;;;15.84;94.68;101895.56;5073720;28;20483;-57
2022/09/19 11:17:06;;;;;;;5.72;0.88;;;;;;;15.89;94.96;101895.22;5073692;28;20044;-58
2022/09/19 11:19:49;;;;;;;5.32;1.00;;;;;;;16.68;99.74;101897.50;5073438;28;20056;-58
2022/09/19 11:22:29;;;;;;;3.65;0.80;;;;;;;17.05;88.54;101892.91;5073297;28;20048;-58
2022/09/19 11:25:08;;;;;;;5.03;0.90;;;;;;;17.37;85.60;101892.28;5073535;28;20045;-58
2022/09/19 11:27:50;;;;;;;2.58;0.70;;;;;;;17.71;78.90;101894.09;5073526;28;20048;-58
2022/09/19 11:30:21;;;;;;;2.87;0.77;;;;;;;18.10;77.54;101891.06;5072932;28;20492;-58
2022/09/19 11:33:18;;;;;;;3.05;0.60;;;;;;;18.07;69.86;101890.34;5073521;28;20052;-59
2022/09/19 11:36:23;;;;;;;3.35;0.60;;;;;;;18.21;71.66;101893.69;5072368;28;20044;-58
2022/09/19 11:39:00;;;;;;;1.90;0.50;;;;;;;18.49;70.74;101888.81;5073159;28;20060;-58
2022/09/19 11:42:05;;;;;;;4.53;0.82;;;;;;;18.81;70.45;101891.44;5073236;28;20058;-59
2022/09/19 11:44:48;;;;;;;1.88;0.70;;;;;;;18.95;69.68;101882.31;5073176;28;20045;-57
2022/09/19 11:47:31;;;;;;;5.22;0.75;;;;;;;19.73;69.48;101882.72;5072225;28;20076;-58
2022/09/19 11:50:21;;;;;;;3.40;0.75;;;;;;;20.00;69.53;101883.97;5071002;28;20099;-58
2022/09/19 11:53:07;;;;;;;2.63;0.80;;;;;;;19.91;62.68;101874.09;5073060;28;20105;-58
2022/09/19 11:55:43;;;;;;;4.45;0.70;;;;;;;19.36;60.89;101893.94;5073254;28;20526;-58